»·PEaware :: N298MC KBLI-C72

N298MC :: KBLI-C72

FLIGHT INFORMATION

Flight Status: Arrived
Operator: Privately registered:
United States
More flights under this callsign
Pilot: Anonymous 29061 (29061)
Aircraft: CESSNA 172 SKYHAWK
(C172)
More flights by this aircraft type
Origin: KBLI Bellingham Intl
United States
Destination: C72 Cross Winds
United States
More flights between these airports :: More routes between these airports
Route:
File this flight plan on PilotEdge
Remarks:
Altitude:
(Current/Filed)
9,500ft
Speed:
(Current/Filed)
110kts
Departed: 25-Oct-22 09:58 AM
Arrived: 25-Oct-22 11:42 AM
Distance/Time
Traveled:
2098nm/1:43
Distance/Time
To Go:
Arrived

Flight Plot

Page will automatically refresh every two minutes.

Flight plan parsing failed; only flown route is shown


Map Options




Map Legend


Flown Route
Filed Route
Departure Airport
Arrival Airport
Navaid (VOR, NDB)
Fix

Horizontal Profiles

Position Reports

Time Latitude Longitude Heading Altitude Ground
Speed
25-Oct-22 09:54 48.795742 -122.534323 145 173ft 0kts
25-Oct-22 09:55 48.795741 -122.534322 144 173ft 0kts
25-Oct-22 09:56 48.801167 -122.537541 172 173ft 0kts
25-Oct-22 09:57 48.793293 -122.537820 181 326ft 74kts
25-Oct-22 09:58 48.771878 -122.527360 106 911ft 105kts
25-Oct-22 09:59 48.769148 -122.482618 95 1537ft 108kts
25-Oct-22 10:00 48.769261 -122.436769 94 2134ft 110kts
25-Oct-22 10:01 48.769352 -122.389270 94 2731ft 114kts
25-Oct-22 10:02 48.769367 -122.340713 93 3326ft 116kts
25-Oct-22 10:03 48.769003 -122.291870 94 3908ft 115kts
25-Oct-22 10:04 48.765701 -122.244709 103 4497ft 111kts
25-Oct-22 10:05 48.762345 -122.198585 103 5085ft 109kts
25-Oct-22 10:06 48.758818 -122.152190 103 5617ft 113kts
25-Oct-22 10:07 48.754035 -122.103733 107 6064ft 119kts
25-Oct-22 10:08 48.747376 -122.054091 107 6466ft 120kts
25-Oct-22 10:09 48.740470 -122.004349 107 6866ft 121kts
25-Oct-22 10:10 48.733511 -121.954465 107 7265ft 120kts
25-Oct-22 10:11 48.726522 -121.905162 107 7643ft 117kts
25-Oct-22 10:12 48.719572 -121.857530 107 8022ft 114kts
25-Oct-22 10:13 48.712566 -121.811344 107 8412ft 112kts
25-Oct-22 10:14 48.705643 -121.765403 107 8809ft 111kts
25-Oct-22 10:15 48.698924 -121.719877 107 9205ft 111kts
25-Oct-22 10:16 48.692220 -121.673982 107 9607ft 112kts
25-Oct-22 10:17 48.685375 -121.628013 107 9979ft 116kts
25-Oct-22 10:18 48.677630 -121.578225 107 10201ft 124kts
25-Oct-22 10:19 48.669421 -121.526586 107 10414ft 127kts
25-Oct-22 10:20 48.661032 -121.473093 107 10510ft 135kts
25-Oct-22 10:21 48.652073 -121.416661 107 10501ft 140kts
25-Oct-22 10:22 48.642911 -121.358737 107 10477ft 142kts
25-Oct-22 10:23 48.634503 -121.300400 105 10474ft 141kts
25-Oct-22 10:24 48.626839 -121.243177 105 10466ft 136kts
25-Oct-22 10:25 48.619538 -121.187753 105 10470ft 134kts
25-Oct-22 10:26 48.611539 -121.133262 105 10479ft 135kts
25-Oct-22 10:27 48.603015 -121.077531 106 10475ft 135kts
25-Oct-22 10:28 48.595663 -121.021979 105 10471ft 134kts
25-Oct-22 10:29 48.588355 -120.966477 105 10471ft 134kts
25-Oct-22 10:30 48.580395 -120.910617 105 10450ft 138kts
25-Oct-22 10:31 48.571884 -120.853538 105 10441ft 140kts
25-Oct-22 10:32 48.564002 -120.795777 106 10440ft 139kts
25-Oct-22 10:33 48.556603 -120.738427 105 10441ft 139kts
25-Oct-22 10:34 48.548592 -120.681125 105 10432ft 141kts
25-Oct-22 10:35 48.539467 -120.624024 105 10430ft 142kts
25-Oct-22 10:36 48.530184 -120.566000 105 10430ft 142kts
25-Oct-22 10:37 48.521033 -120.507975 105 10430ft 142kts
25-Oct-22 10:38 48.511246 -120.449968 105 10412ft 144kts
25-Oct-22 10:39 48.500193 -120.391783 105 10409ft 144kts
25-Oct-22 10:40 48.489212 -120.333313 105 10407ft 144kts
25-Oct-22 10:41 48.478533 -120.274904 105 10407ft 144kts
25-Oct-22 10:42 48.467748 -120.216616 105 10410ft 144kts
25-Oct-22 10:43 48.456615 -120.158323 105 10409ft 144kts
25-Oct-22 10:44 48.445767 -120.100937 105 10409ft 144kts
25-Oct-22 10:45 48.435086 -120.042556 105 10409ft 144kts
25-Oct-22 10:46 48.424428 -119.984202 105 10410ft 144kts
25-Oct-22 10:47 48.413758 -119.925782 105 10411ft 144kts
25-Oct-22 10:48 48.403110 -119.867509 105 10410ft 144kts
25-Oct-22 10:49 48.392448 -119.809164 105 10410ft 144kts
25-Oct-22 10:50 48.381779 -119.750793 105 10411ft 144kts
25-Oct-22 10:51 48.371104 -119.692412 105 10412ft 144kts
25-Oct-22 10:52 48.360360 -119.634287 105 10412ft 144kts
25-Oct-22 10:53 48.349677 -119.575907 105 10412ft 144kts
25-Oct-22 10:54 48.338989 -119.517580 105 10411ft 144kts
25-Oct-22 10:55 48.327781 -119.459587 105 10412ft 144kts
25-Oct-22 10:56 48.316656 -119.401487 105 10411ft 144kts
25-Oct-22 10:57 48.305987 -119.343215 105 10411ft 144kts
25-Oct-22 10:58 48.295083 -119.284947 106 10411ft 144kts
25-Oct-22 10:59 48.283093 -119.227380 105 10411ft 144kts
25-Oct-22 11:00 48.271359 -119.170490 105 10410ft 144kts
25-Oct-22 11:01 48.259965 -119.112431 105 10411ft 144kts
25-Oct-22 11:02 48.248937 -119.054506 106 10411ft 144kts
25-Oct-22 11:03 48.236932 -118.997092 105 10412ft 144kts
25-Oct-22 11:04 48.225393 -118.939617 105 10412ft 143kts
25-Oct-22 11:05 48.214462 -118.882186 105 10412ft 143kts
25-Oct-22 11:06 48.203413 -118.824374 104 10412ft 143kts
25-Oct-22 11:07 48.191496 -118.767500 105 10412ft 143kts
25-Oct-22 11:08 48.179725 -118.711796 105 10412ft 142kts
25-Oct-22 11:09 48.167808 -118.654415 105 10412ft 143kts
25-Oct-22 11:10 48.156270 -118.598018 105 10413ft 140kts
25-Oct-22 11:11 48.145867 -118.544001 102 10409ft 131kts
25-Oct-22 11:12 48.137329 -118.490941 102 10411ft 130kts
25-Oct-22 11:13 48.128622 -118.438112 102 10413ft 131kts
25-Oct-22 11:14 48.119832 -118.384718 102 10412ft 132kts
25-Oct-22 11:15 48.111120 -118.331537 102 10415ft 130kts
25-Oct-22 11:16 48.102507 -118.278977 102 10413ft 129kts
25-Oct-22 11:17 48.093877 -118.226470 102 10410ft 130kts
25-Oct-22 11:18 48.085198 -118.174088 102 10410ft 129kts
25-Oct-22 11:19 48.076331 -118.120005 102 10075ft 140kts
25-Oct-22 11:20 48.067248 -118.062817 102 9582ft 141kts
25-Oct-22 11:21 48.058082 -118.006418 102 9089ft 139kts
25-Oct-22 11:22 48.048788 -117.950404 102 8587ft 137kts
25-Oct-22 11:23 48.039599 -117.895327 102 8092ft 136kts
25-Oct-22 11:24 48.030768 -117.840826 102 7590ft 135kts
25-Oct-22 11:25 48.022168 -117.785663 102 7087ft 137kts
25-Oct-22 11:26 48.014060 -117.729618 102 6592ft 140kts
25-Oct-22 11:27 48.006621 -117.672228 102 6098ft 141kts
25-Oct-22 11:28 47.999645 -117.613729 102 5600ft 144kts
25-Oct-22 11:29 48.002985 -117.556644 31 5072ft 146kts
25-Oct-22 11:31 48.032686 -117.556357 270 4558ft 108kts
25-Oct-22 11:32 48.010651 -117.563835 162 4423ft 107kts
25-Oct-22 11:33 47.984186 -117.535326 145 3934ft 120kts
25-Oct-22 11:34 47.966246 -117.495970 69 3397ft 130kts
25-Oct-22 11:35 47.995539 -117.499994 316 3120ft 119kts
25-Oct-22 11:36 48.006836 -117.537853 240 3080ft 101kts
25-Oct-22 11:37 47.990645 -117.549367 150 2476ft 74kts
25-Oct-22 11:38 47.976709 -117.526941 80 2793ft 93kts
25-Oct-22 11:39 48.001141 -117.517814 338 3226ft 96kts
25-Oct-22 11:40 48.010236 -117.541793 227 3031ft 75kts
25-Oct-22 11:41 47.993717 -117.551205 157 2431ft 67kts
25-Oct-22 11:42 47.983951 -117.542689 149 2153ft 5kts
25-Oct-22 11:43 47.983867 -117.542615 149 2153ft 0kts
25-Oct-22 11:44 47.983865 -117.542613 149 2153ft 0kts
25-Oct-22 11:45 47.983863 -117.542611 149 2153ft 0kts
25-Oct-22 11:46 47.983861 -117.542610 149 2153ft 0kts
25-Oct-22 11:47 47.983861 -117.542609 149 2153ft 0kts
25-Oct-22 11:48 40.622275 -73.785402 0 41ft 0kts

Navigation Log

Ident Type
Flight plan parsing failed, navigation log unavailable